createdAt,value
2019-05-20T00:00:11.794Z,8.00
2019-05-20T00:01:11.809Z,8.00
2019-05-20T00:02:24.551Z,7.60
2019-05-20T00:03:12.753Z,8.10
2019-05-20T00:04:11.751Z,7.60
2019-05-20T00:05:11.745Z,8.00
2019-05-20T00:06:11.738Z,8.10
2019-05-20T00:07:11.762Z,8.00
2019-05-20T00:08:11.707Z,8.10
2019-05-20T00:09:11.692Z,7.90
2019-05-20T00:10:11.688Z,7.60
2019-05-20T00:11:11.670Z,8.00
2019-05-20T00:12:11.695Z,7.90
2019-05-20T00:13:11.652Z,7.80
2019-05-20T00:14:11.633Z,7.40
2019-05-20T00:15:11.646Z,7.80
2019-05-20T00:16:11.604Z,7.70
2019-05-20T00:17:11.600Z,8.10
2019-05-20T00:18:11.624Z,8.00
2019-05-20T00:19:11.569Z,8.00
2019-05-20T00:20:11.583Z,8.20
2019-05-20T00:21:11.550Z,7.60
2019-05-20T00:22:11.542Z,7.40
2019-05-20T00:23:11.531Z,7.30
2019-05-20T00:24:11.533Z,8.00
2019-05-20T00:25:11.780Z,7.80
2019-05-20T00:26:11.556Z,7.00
2019-05-20T00:27:11.476Z,7.90
2019-05-20T00:28:11.458Z,7.60
2019-05-20T00:29:11.451Z,8.30
2019-05-20T00:30:11.461Z,7.50
2019-05-20T00:31:11.457Z,7.60
2019-05-20T00:32:11.415Z,7.50
2019-05-20T00:33:11.424Z,8.00
2019-05-20T00:34:11.404Z,7.70
2019-05-20T00:35:11.409Z,7.80
2019-05-20T00:36:11.366Z,7.70
2019-05-20T00:37:11.357Z,7.20
2019-05-20T00:38:11.466Z,7.70
2019-05-20T00:39:11.358Z,7.40
2019-05-20T00:40:11.723Z,7.90
2019-05-20T00:41:11.317Z,8.30
2019-05-20T00:42:11.311Z,8.20
2019-05-20T00:43:11.292Z,7.20
2019-05-20T00:44:11.272Z,7.50
2019-05-20T00:45:11.321Z,7.30
2019-05-20T00:46:11.294Z,7.60
2019-05-20T00:47:11.257Z,7.50
2019-05-20T00:48:11.274Z,7.70
2019-05-20T00:49:11.267Z,7.70
2019-05-20T00:50:11.249Z,7.90
2019-05-20T00:51:11.211Z,7.20
2019-05-20T00:52:11.219Z,7.60
2019-05-20T00:53:11.211Z,7.50
2019-05-20T00:54:11.171Z,7.50
2019-05-20T00:55:11.164Z,8.00
2019-05-20T00:56:11.144Z,7.80
2019-05-20T00:57:11.141Z,7.40
2019-05-20T00:58:11.181Z,7.50
2019-05-20T00:59:11.116Z,7.90
2019-05-20T01:00:11.106Z,8.00
2019-05-20T01:01:11.290Z,7.70
2019-05-20T01:02:11.087Z,7.70
2019-05-20T01:03:11.093Z,7.90
2019-05-20T01:04:11.078Z,7.50
2019-05-20T01:05:11.046Z,8.40
2019-05-20T01:06:11.027Z,7.90
2019-05-20T01:07:11.013Z,7.50
2019-05-20T01:08:11.035Z,7.40
2019-05-20T01:09:11.016Z,8.20
2019-05-20T01:10:11.009Z,7.60
2019-05-20T01:11:10.994Z,7.70
2019-05-20T01:12:10.961Z,8.00
2019-05-20T01:13:10.988Z,7.70
2019-05-20T01:14:10.967Z,7.30
2019-05-20T01:15:10.931Z,7.40
2019-05-20T01:16:10.921Z,7.80
2019-05-20T01:17:10.925Z,7.20
2019-05-20T01:18:10.919Z,7.70
2019-05-20T01:19:10.917Z,7.80
2019-05-20T01:20:10.868Z,7.40
2019-05-20T01:21:10.892Z,7.70
2019-05-20T01:22:10.859Z,7.20
2019-05-20T01:23:10.837Z,7.70
2019-05-20T01:24:10.840Z,7.10
2019-05-20T01:25:10.850Z,7.40
2019-05-20T01:26:10.803Z,7.50
2019-05-20T01:27:10.805Z,7.40
2019-05-20T01:28:10.812Z,6.90
2019-05-20T01:29:10.775Z,7.20
2019-05-20T01:30:10.752Z,7.40
2019-05-20T01:31:10.767Z,7.00
2019-05-20T01:32:10.726Z,7.90
2019-05-20T01:33:14.242Z,7.40
2019-05-20T01:34:10.709Z,7.30
2019-05-20T01:35:10.725Z,7.70
2019-05-20T01:36:10.684Z,7.40
2019-05-20T01:37:10.671Z,7.60
2019-05-20T01:38:10.661Z,7.40
2019-05-20T01:39:10.662Z,7.70
2019-05-20T01:40:10.673Z,6.80
2019-05-20T01:41:10.619Z,7.80
2019-05-20T01:42:10.614Z,7.30
2019-05-20T01:43:10.600Z,7.50
2019-05-20T01:44:10.585Z,7.40
2019-05-20T01:45:10.644Z,7.50
2019-05-20T01:46:10.566Z,7.40
2019-05-20T01:47:10.558Z,7.10
2019-05-20T01:48:10.541Z,7.40
2019-05-20T01:49:10.532Z,7.40
2019-05-20T01:50:10.548Z,6.50
2019-05-20T01:51:10.543Z,7.50
2019-05-20T01:52:10.491Z,7.00
2019-05-20T01:53:10.488Z,7.20
2019-05-20T01:54:10.487Z,7.50
2019-05-20T01:55:10.510Z,7.30
2019-05-20T01:56:10.447Z,7.00
2019-05-20T01:57:10.440Z,7.40
2019-05-20T01:58:10.432Z,6.70
2019-05-20T01:59:10.415Z,7.20
2019-05-20T02:00:10.438Z,7.00
2019-05-20T02:01:10.435Z,7.00
2019-05-20T02:02:10.434Z,7.10
2019-05-20T02:03:10.366Z,7.50
2019-05-20T02:04:10.363Z,7.30
2019-05-20T02:05:10.374Z,7.30
2019-05-20T02:06:10.373Z,7.70
2019-05-20T02:07:10.349Z,7.30
2019-05-20T02:08:10.323Z,7.50
2019-05-20T02:09:10.296Z,7.60
2019-05-20T02:10:10.324Z,7.60
2019-05-20T02:11:10.271Z,7.20
2019-05-20T02:12:10.262Z,7.60
2019-05-20T02:13:10.312Z,7.70
2019-05-20T02:14:10.253Z,8.10
2019-05-20T02:15:10.226Z,8.00
2019-05-20T02:16:10.245Z,7.80
2019-05-20T02:17:10.211Z,7.40
2019-05-20T02:18:10.196Z,7.50
2019-05-20T02:19:10.257Z,7.20
2019-05-20T02:20:10.168Z,7.00
2019-05-20T02:21:10.189Z,7.20
2019-05-20T02:22:10.143Z,7.60
2019-05-20T02:23:10.156Z,7.30
2019-05-20T02:24:10.157Z,7.30
2019-05-20T02:25:10.127Z,7.40
2019-05-20T02:26:10.133Z,7.00
2019-05-20T02:27:10.126Z,7.60
2019-05-20T02:28:10.078Z,7.20
2019-05-20T02:29:10.091Z,7.70
2019-05-20T02:30:10.071Z,7.50
2019-05-20T02:31:10.067Z,7.10
2019-05-20T02:32:10.034Z,7.30
2019-05-20T02:33:10.048Z,6.90
2019-05-20T02:34:10.014Z,7.20
2019-05-20T02:35:09.995Z,7.40
2019-05-20T02:36:10.020Z,6.80
2019-05-20T02:37:09.977Z,7.40
2019-05-20T02:38:09.954Z,7.20
2019-05-20T02:39:09.953Z,7.30
2019-05-20T02:40:10.003Z,7.80
2019-05-20T02:41:09.943Z,7.20
2019-05-20T02:42:09.915Z,7.50
2019-05-20T02:43:09.898Z,6.80
2019-05-20T02:44:09.883Z,7.80
2019-05-20T02:45:09.894Z,7.60
2019-05-20T02:46:09.911Z,7.40
2019-05-20T02:47:09.844Z,7.50
2019-05-20T02:48:09.845Z,7.70
2019-05-20T02:49:09.845Z,7.60
2019-05-20T02:50:09.814Z,7.10
2019-05-20T02:51:09.808Z,7.40
2019-05-20T02:52:09.821Z,7.00
2019-05-20T02:53:09.826Z,7.40
2019-05-20T02:54:09.787Z,7.50
2019-05-20T02:55:09.760Z,7.00
2019-05-20T02:56:09.753Z,7.20
2019-05-20T02:57:09.727Z,7.70
2019-05-20T02:58:09.747Z,7.30
2019-05-20T02:59:09.743Z,6.70
2019-05-20T03:00:09.690Z,7.10
2019-05-20T03:01:09.709Z,7.60
2019-05-20T03:02:09.676Z,7.30
2019-05-20T03:03:09.664Z,7.10
2019-05-20T03:04:12.276Z,6.90
2019-05-20T03:05:09.668Z,7.30
2019-05-20T03:06:09.657Z,7.40
2019-05-20T03:07:09.623Z,7.30
2019-05-20T03:08:09.615Z,7.00
2019-05-20T03:09:12.072Z,6.90
2019-05-20T03:10:09.607Z,7.70
2019-05-20T03:11:09.595Z,7.40
2019-05-20T03:12:09.592Z,7.60
2019-05-20T03:13:09.597Z,7.70
2019-05-20T03:14:09.537Z,7.20
2019-05-20T03:15:09.524Z,7.80
2019-05-20T03:16:09.545Z,7.20
2019-05-20T03:17:09.500Z,7.60
2019-05-20T03:18:09.490Z,7.60
2019-05-20T03:19:09.506Z,7.90
2019-05-20T03:20:09.485Z,7.40
2019-05-20T03:21:09.483Z,7.30
2019-05-20T03:22:09.453Z,7.50
2019-05-20T03:23:09.451Z,8.00
2019-05-20T03:24:09.421Z,7.70
2019-05-20T03:25:09.408Z,7.80
2019-05-20T03:26:09.409Z,7.30
2019-05-20T03:27:09.382Z,7.20
2019-05-20T03:28:09.413Z,7.30
2019-05-20T03:29:09.359Z,7.30
2019-05-20T03:30:09.357Z,7.20
2019-05-20T03:31:09.337Z,7.40
2019-05-20T03:32:09.400Z,7.70
2019-05-20T03:33:09.340Z,7.80
2019-05-20T03:34:09.333Z,7.40
2019-05-20T03:35:09.329Z,7.60
2019-05-20T03:36:09.275Z,8.10
2019-05-20T03:37:09.254Z,7.70
2019-05-20T03:38:09.384Z,7.30
2019-05-20T03:39:09.265Z,8.20
2019-05-20T03:40:09.230Z,8.00
2019-05-20T03:41:09.215Z,7.50
2019-05-20T03:42:09.196Z,7.40
2019-05-20T03:43:09.225Z,7.60
2019-05-20T03:44:09.206Z,7.50
2019-05-20T03:45:09.167Z,7.20
2019-05-20T03:46:09.151Z,7.40
2019-05-20T03:47:09.158Z,7.80
2019-05-20T03:48:09.152Z,8.10
2019-05-20T03:49:09.164Z,8.00
2019-05-20T03:50:09.170Z,7.60
2019-05-20T03:51:09.099Z,8.10
2019-05-20T03:52:09.089Z,7.60
2019-05-20T03:53:09.085Z,8.90
2019-05-20T03:54:09.070Z,8.20
2019-05-20T03:55:09.079Z,8.40
2019-05-20T03:56:09.058Z,8.60
2019-05-20T03:57:09.047Z,7.90
2019-05-20T03:58:12.980Z,8.30
2019-05-20T03:59:09.007Z,8.00
2019-05-20T04:00:09.002Z,8.00
2019-05-20T04:01:09.000Z,7.80
2019-05-20T04:02:09.016Z,8.50
2019-05-20T04:03:08.952Z,7.90
2019-05-20T04:04:08.942Z,7.70
2019-05-20T04:05:08.935Z,8.00
2019-05-20T04:06:08.918Z,8.30
2019-05-20T04:07:08.935Z,8.30
2019-05-20T04:08:09.022Z,8.90
2019-05-20T04:09:08.893Z,8.00
2019-05-20T04:10:08.895Z,8.30
2019-05-20T04:11:08.885Z,8.00
2019-05-20T04:12:08.952Z,8.10
2019-05-20T04:13:08.921Z,8.40
2019-05-20T04:14:08.820Z,7.40
2019-05-20T04:15:08.962Z,8.30
2019-05-20T04:16:08.959Z,8.20
2019-05-20T04:17:08.789Z,8.90
2019-05-20T04:18:08.890Z,8.10
2019-05-20T04:19:08.776Z,8.30
2019-05-20T04:20:08.826Z,8.50
2019-05-20T04:21:08.749Z,8.70
2019-05-20T04:22:08.741Z,7.90
2019-05-20T04:23:08.749Z,8.30
2019-05-20T04:24:08.753Z,8.80
2019-05-20T04:25:08.775Z,8.70
2019-05-20T04:26:08.780Z,8.40
2019-05-20T04:27:08.755Z,8.70
2019-05-20T04:28:08.711Z,9.20
2019-05-20T04:29:08.779Z,8.80
2019-05-20T04:30:08.652Z,8.10
2019-05-20T04:31:08.837Z,9.30
2019-05-20T04:32:08.624Z,8.80
2019-05-20T04:33:08.662Z,9.30
2019-05-20T04:34:08.605Z,9.70
2019-05-20T04:35:21.307Z,9.60
2019-05-20T04:36:09.754Z,9.60
2019-05-20T04:37:08.738Z,10.10
2019-05-20T04:38:08.801Z,9.50
2019-05-20T04:39:08.552Z,10.30
2019-05-20T04:40:08.556Z,10.00
2019-05-20T04:41:08.545Z,9.70
2019-05-20T04:42:08.500Z,10.10
2019-05-20T04:43:08.515Z,10.20
2019-05-20T04:44:08.497Z,10.00
2019-05-20T04:45:08.482Z,10.30
2019-05-20T04:46:08.457Z,10.10
2019-05-20T04:47:08.522Z,9.90
2019-05-20T04:48:08.449Z,10.40
2019-05-20T04:49:08.454Z,10.40
2019-05-20T04:50:08.444Z,10.40
2019-05-20T04:51:08.405Z,10.70
2019-05-20T04:52:08.399Z,10.20
2019-05-20T04:53:08.394Z,10.80
2019-05-20T04:54:08.447Z,10.70
2019-05-20T04:55:08.397Z,10.50
2019-05-20T04:56:08.392Z,11.40
2019-05-20T04:57:08.337Z,10.20
2019-05-20T04:58:08.377Z,10.70
2019-05-20T04:59:08.315Z,10.80
2019-05-20T05:00:08.333Z,10.60
2019-05-20T05:01:08.346Z,10.60
2019-05-20T05:02:08.280Z,9.80
2019-05-20T05:03:08.275Z,9.90
2019-05-20T05:04:08.322Z,9.80
2019-05-20T05:05:08.291Z,9.80
2019-05-20T05:06:08.274Z,9.30
2019-05-20T05:07:08.240Z,9.10
2019-05-20T05:08:08.251Z,9.70
2019-05-20T05:09:08.279Z,9.50
2019-05-20T05:10:08.229Z,9.10
2019-05-20T05:11:08.209Z,9.50
2019-05-20T05:12:08.170Z,9.90
2019-05-20T05:13:08.153Z,9.20
2019-05-20T05:14:08.159Z,9.40
2019-05-20T05:15:08.298Z,9.50
2019-05-20T05:16:08.301Z,9.30
2019-05-20T05:17:08.134Z,9.70
2019-05-20T05:18:08.107Z,9.60
2019-05-20T05:19:08.185Z,9.80
2019-05-20T05:20:17.194Z,9.40
2019-05-20T05:21:09.066Z,10.10
2019-05-20T05:22:08.058Z,9.60
2019-05-20T05:23:08.053Z,9.50
2019-05-20T05:24:08.100Z,10.00
2019-05-20T05:25:08.047Z,9.60
2019-05-20T05:26:08.058Z,9.70
2019-05-20T05:27:08.032Z,10.30
2019-05-20T05:28:07.983Z,9.70
2019-05-20T05:29:07.985Z,9.60
2019-05-20T05:30:08.043Z,9.80
2019-05-20T05:31:08.002Z,9.60
2019-05-20T05:32:07.975Z,9.60
2019-05-20T05:33:07.975Z,9.70
2019-05-20T05:34:07.937Z,9.70
2019-05-20T05:35:07.989Z,10.00
2019-05-20T05:36:07.900Z,10.10
2019-05-20T05:37:07.943Z,10.10
2019-05-20T05:38:08.277Z,10.40
2019-05-20T05:39:07.889Z,9.80
2019-05-20T05:40:08.377Z,10.40
2019-05-20T05:41:07.860Z,10.40
2019-05-20T05:42:08.721Z,10.30
2019-05-20T05:43:07.851Z,10.50
2019-05-20T05:44:07.828Z,10.40
2019-05-20T05:45:07.811Z,10.40
2019-05-20T05:46:07.831Z,9.80
2019-05-20T05:47:07.782Z,9.60
2019-05-20T05:48:07.842Z,10.20
2019-05-20T05:49:07.756Z,10.10
2019-05-20T05:50:07.803Z,10.70
2019-05-20T05:51:07.760Z,10.30
2019-05-20T05:52:07.735Z,11.00
2019-05-20T05:53:07.790Z,10.70
2019-05-20T05:54:07.714Z,10.30
2019-05-20T05:55:07.713Z,10.20
2019-05-20T05:56:07.677Z,10.40
2019-05-20T05:57:07.723Z,10.40
2019-05-20T05:58:08.782Z,10.10
2019-05-20T05:59:07.725Z,10.00
2019-05-20T06:00:07.650Z,10.30
2019-05-20T06:01:07.625Z,10.00
2019-05-20T06:02:07.627Z,10.30
2019-05-20T06:03:07.607Z,9.80
2019-05-20T06:04:07.630Z,9.70
2019-05-20T06:05:07.586Z,10.30
2019-05-20T06:06:13.104Z,9.80
2019-05-20T06:07:08.553Z,9.70
2019-05-20T06:08:07.534Z,9.80
2019-05-20T06:09:07.555Z,9.00
2019-05-20T06:10:07.563Z,8.70
2019-05-20T06:11:07.508Z,9.30
2019-05-20T06:12:08.302Z,8.80
2019-05-20T06:13:07.538Z,9.10
2019-05-20T06:14:07.498Z,9.40
2019-05-20T06:15:07.504Z,10.00
2019-05-20T06:16:07.474Z,10.30
2019-05-20T06:17:07.455Z,11.00
2019-05-20T06:18:07.469Z,10.70
2019-05-20T06:19:07.406Z,8.60
2019-05-20T06:20:07.421Z,7.90
2019-05-20T06:21:07.410Z,8.60
2019-05-20T06:22:07.395Z,7.60
2019-05-20T06:23:07.366Z,8.20
2019-05-20T06:24:08.339Z,8.20
2019-05-20T06:25:07.395Z,7.80
2019-05-20T06:26:07.329Z,8.00
2019-05-20T06:27:07.355Z,8.40
2019-05-20T06:28:07.334Z,9.00
2019-05-20T06:29:07.291Z,9.00
2019-05-20T06:30:07.295Z,8.30
2019-05-20T06:31:07.388Z,8.50
2019-05-20T06:32:07.287Z,8.90
2019-05-20T06:33:07.241Z,8.20
2019-05-20T06:34:07.257Z,7.50
2019-05-20T06:35:07.361Z,7.60
2019-05-20T06:36:07.203Z,8.20
2019-05-20T06:37:07.199Z,8.50
2019-05-20T06:38:07.259Z,9.00
2019-05-20T06:39:07.182Z,8.70
2019-05-20T06:40:07.770Z,8.60
2019-05-20T06:41:07.177Z,8.40
2019-05-20T06:42:07.847Z,8.20
2019-05-20T06:43:07.132Z,8.00
2019-05-20T06:44:07.118Z,8.10
2019-05-20T06:45:07.112Z,9.40
2019-05-20T06:46:07.124Z,8.60
2019-05-20T06:47:07.125Z,8.40
2019-05-20T06:48:07.100Z,8.70
2019-05-20T06:49:07.093Z,8.20
2019-05-20T06:50:07.048Z,8.50
2019-05-20T06:51:07.187Z,12.80
2019-05-20T06:52:07.034Z,8.50
2019-05-20T06:53:07.021Z,8.40
2019-05-20T06:54:07.040Z,8.80
2019-05-20T06:55:07.065Z,9.10
2019-05-20T06:56:07.020Z,8.50
2019-05-20T06:57:07.007Z,8.90
2019-05-20T06:58:06.967Z,8.90
2019-05-20T06:59:06.999Z,8.80
2019-05-20T07:00:06.947Z,9.10
2019-05-20T07:01:06.960Z,9.10
2019-05-20T07:02:06.953Z,8.80
2019-05-20T07:03:06.906Z,9.10
2019-05-20T07:04:06.914Z,8.40
2019-05-20T07:05:06.879Z,8.90
2019-05-20T07:06:06.873Z,9.00
2019-05-20T07:07:19.987Z,8.90
2019-05-20T07:08:07.925Z,8.40
2019-05-20T07:09:06.837Z,9.00
2019-05-20T07:10:06.820Z,9.00
2019-05-20T07:11:06.821Z,8.70
2019-05-20T07:12:06.846Z,9.10
2019-05-20T07:13:06.826Z,9.10
2019-05-20T07:14:06.821Z,8.70
2019-05-20T07:15:06.772Z,8.30
2019-05-20T07:16:06.755Z,8.70
2019-05-20T07:17:06.736Z,8.50
2019-05-20T07:18:06.730Z,9.30
2019-05-20T07:19:06.809Z,8.00
2019-05-20T07:20:06.706Z,9.00
2019-05-20T07:21:06.695Z,8.40
2019-05-20T07:22:06.683Z,8.00
2019-05-20T07:23:06.736Z,8.10
2019-05-20T07:24:06.712Z,8.20
2019-05-20T07:25:06.658Z,8.00
2019-05-20T07:26:06.642Z,7.80
2019-05-20T07:27:06.634Z,8.10
2019-05-20T07:28:06.622Z,8.00
2019-05-20T07:29:06.627Z,7.50
2019-05-20T07:30:06.591Z,7.80
2019-05-20T07:31:06.621Z,8.10
2019-05-20T07:32:06.577Z,8.00
2019-05-20T07:33:06.618Z,7.30
2019-05-20T07:34:06.587Z,7.20
2019-05-20T07:35:06.542Z,6.90
2019-05-20T07:36:09.843Z,7.20
2019-05-20T07:37:06.514Z,7.00
2019-05-20T07:38:06.508Z,7.50
2019-05-20T07:39:06.528Z,7.10
2019-05-20T07:40:06.478Z,7.60
2019-05-20T07:41:06.540Z,7.40
2019-05-20T07:42:06.488Z,7.60
2019-05-20T07:43:06.446Z,7.70
2019-05-20T07:44:06.438Z,7.50
2019-05-20T07:45:06.427Z,7.70
2019-05-20T07:46:06.432Z,7.90
2019-05-20T07:47:06.395Z,7.90
2019-05-20T07:48:06.426Z,7.40
2019-05-20T07:49:06.382Z,7.80
2019-05-20T07:50:27.493Z,7.50
2019-05-20T07:51:06.391Z,7.80
2019-05-20T07:52:07.309Z,7.60
2019-05-20T07:53:06.331Z,7.80
2019-05-20T07:54:06.339Z,7.80
2019-05-20T07:55:06.309Z,8.20
2019-05-20T07:56:06.341Z,7.70
2019-05-20T07:57:06.315Z,7.60
2019-05-20T07:58:06.275Z,8.30
2019-05-20T07:59:06.264Z,7.30
2019-05-20T08:00:06.263Z,7.80
2019-05-20T08:01:06.274Z,7.50
2019-05-20T08:02:06.261Z,8.20
2019-05-20T08:03:06.210Z,7.40
2019-05-20T08:04:06.208Z,7.50
2019-05-20T08:05:06.249Z,7.60
2019-05-20T08:06:06.196Z,7.10
2019-05-20T08:07:26.049Z,7.60
2019-05-20T08:08:07.168Z,7.20
2019-05-20T08:09:06.159Z,7.50
2019-05-20T08:10:06.135Z,7.60
2019-05-20T08:11:06.161Z,7.20
2019-05-20T08:12:06.158Z,7.50
2019-05-20T08:13:06.129Z,7.30
2019-05-20T08:14:06.114Z,7.80
2019-05-20T08:15:06.107Z,7.50
2019-05-20T08:16:06.068Z,7.20
2019-05-20T08:17:06.053Z,6.80
2019-05-20T08:18:06.054Z,8.00
2019-05-20T08:19:06.084Z,7.50
2019-05-20T08:20:06.060Z,7.70
2019-05-20T08:21:06.022Z,7.60
2019-05-20T08:22:05.998Z,7.50
2019-05-20T08:23:05.991Z,7.30
2019-05-20T08:24:06.029Z,7.70
2019-05-20T08:25:05.969Z,7.30
2019-05-20T08:26:05.944Z,7.80
2019-05-20T08:27:05.987Z,7.90
2019-05-20T08:28:05.958Z,7.80
2019-05-20T08:29:05.962Z,7.70
2019-05-20T08:30:05.946Z,7.90
2019-05-20T08:31:05.892Z,7.40
2019-05-20T08:32:05.956Z,7.20
2019-05-20T08:33:05.863Z,7.20
2019-05-20T08:34:05.869Z,7.20
2019-05-20T08:35:05.901Z,7.20
2019-05-20T08:36:05.841Z,7.30
2019-05-20T08:37:05.856Z,6.80
2019-05-20T08:38:05.823Z,7.00
2019-05-20T08:39:05.806Z,7.50
2019-05-20T08:40:05.792Z,7.20
2019-05-20T08:41:05.831Z,7.10
2019-05-20T08:42:05.860Z,7.20
2019-05-20T08:43:05.772Z,7.30
2019-05-20T08:44:05.750Z,7.50
2019-05-20T08:45:05.746Z,8.00
2019-05-20T08:46:05.718Z,7.90
2019-05-20T08:47:05.775Z,7.60
2019-05-20T08:48:05.721Z,7.80
2019-05-20T08:49:10.452Z,7.40
2019-05-20T08:50:11.319Z,7.70
2019-05-20T08:51:06.673Z,7.80
2019-05-20T08:52:05.678Z,7.60
2019-05-20T08:53:05.681Z,7.60
2019-05-20T08:54:05.656Z,7.10
2019-05-20T08:55:05.639Z,7.50
2019-05-20T08:56:05.657Z,7.80
2019-05-20T08:57:05.628Z,7.40
2019-05-20T08:58:05.623Z,7.30
2019-05-20T08:59:05.829Z,7.90
2019-05-20T09:00:05.579Z,7.60
2019-05-20T09:01:05.930Z,7.50
2019-05-20T09:02:05.541Z,8.30
2019-05-20T09:03:05.582Z,8.00
2019-05-20T09:04:05.531Z,7.50
2019-05-20T09:05:05.514Z,7.70
2019-05-20T09:06:05.517Z,7.60
2019-05-20T09:07:05.528Z,7.20
2019-05-20T09:08:05.501Z,7.90
2019-05-20T09:09:05.469Z,8.00
2019-05-20T09:10:05.522Z,7.40
2019-05-20T09:11:05.476Z,7.60
2019-05-20T09:12:05.495Z,7.60
2019-05-20T09:13:05.416Z,8.00
2019-05-20T09:14:05.413Z,7.70
2019-05-20T09:15:05.402Z,7.50
2019-05-20T09:16:05.438Z,8.30
2019-05-20T09:17:05.381Z,8.00
2019-05-20T09:18:05.412Z,7.70
2019-05-20T09:19:05.370Z,7.90
2019-05-20T09:20:05.377Z,8.30
2019-05-20T09:21:05.402Z,8.50
2019-05-20T09:22:05.312Z,7.90
2019-05-20T09:23:05.316Z,8.40
2019-05-20T09:24:05.459Z,8.30
2019-05-20T09:25:05.480Z,8.80
2019-05-20T09:26:05.269Z,8.10
2019-05-20T09:27:05.272Z,8.20
2019-05-20T09:28:05.237Z,8.50
2019-05-20T09:29:05.281Z,8.70
2019-05-20T09:30:05.230Z,8.80
2019-05-20T09:31:05.222Z,8.60
2019-05-20T09:32:05.192Z,8.90
2019-05-20T09:33:05.201Z,8.30
2019-05-20T09:34:05.220Z,8.30
2019-05-20T09:35:05.253Z,8.50
2019-05-20T09:36:05.209Z,8.70
2019-05-20T09:37:05.149Z,9.00
2019-05-20T09:38:17.650Z,9.00
2019-05-20T09:39:06.127Z,8.70
2019-05-20T09:40:05.114Z,8.90
2019-05-20T09:41:05.100Z,9.30
2019-05-20T09:42:05.136Z,9.00
2019-05-20T09:43:05.125Z,9.10
2019-05-20T09:44:05.062Z,9.30
2019-05-20T09:45:05.138Z,9.90
2019-05-20T09:46:08.095Z,10.10
2019-05-20T09:47:05.079Z,9.60
2019-05-20T09:48:05.026Z,10.10
2019-05-20T09:49:05.037Z,10.10
2019-05-20T09:50:05.068Z,10.00
2019-05-20T09:51:04.984Z,10.10
2019-05-20T09:52:04.991Z,10.40
2019-05-20T09:53:07.138Z,10.40
2019-05-20T09:54:04.952Z,9.70
2019-05-20T09:55:04.991Z,10.30
2019-05-20T09:56:04.964Z,10.40
2019-05-20T09:57:04.927Z,10.30
2019-05-20T09:58:04.927Z,10.40
2019-05-20T09:59:04.914Z,10.80
2019-05-20T10:00:05.894Z,10.90
2019-05-20T10:01:04.942Z,10.50
2019-05-20T10:02:04.917Z,10.10
2019-05-20T10:03:05.240Z,10.50
2019-05-20T10:04:04.882Z,10.30
2019-05-20T10:05:25.946Z,10.00
2019-05-20T10:06:04.863Z,10.50
2019-05-20T10:07:04.854Z,10.60
2019-05-20T10:08:04.811Z,10.00
2019-05-20T10:09:04.806Z,10.50
2019-05-20T10:10:04.784Z,10.60
2019-05-20T10:11:04.763Z,10.60
2019-05-20T10:12:04.842Z,10.70
2019-05-20T10:13:04.822Z,10.00
2019-05-20T10:14:04.726Z,10.80
2019-05-20T10:15:04.744Z,10.50
2019-05-20T10:16:04.762Z,10.20
2019-05-20T10:17:04.718Z,10.50
2019-05-20T10:18:04.680Z,10.70
2019-05-20T10:19:04.692Z,10.40
2019-05-20T10:20:04.699Z,10.60
2019-05-20T10:21:04.690Z,10.60
2019-05-20T10:22:04.642Z,10.10
2019-05-20T10:23:04.759Z,9.40
2019-05-20T10:24:04.613Z,10.30
2019-05-20T10:25:04.730Z,9.80
2019-05-20T10:26:04.623Z,10.50
2019-05-20T10:27:04.621Z,10.20
2019-05-20T10:28:04.621Z,10.30
2019-05-20T10:29:04.597Z,10.00
2019-05-20T10:30:04.548Z,10.60
2019-05-20T10:31:04.572Z,10.40
2019-05-20T10:32:04.516Z,10.10
2019-05-20T10:33:09.464Z,10.60
2019-05-20T10:34:05.544Z,10.40
2019-05-20T10:35:04.494Z,10.30
2019-05-20T10:36:04.579Z,10.40
2019-05-20T10:37:04.466Z,10.20
2019-05-20T10:38:04.485Z,10.10
2019-05-20T10:39:07.683Z,10.40
2019-05-20T10:40:04.461Z,10.60
2019-05-20T10:41:04.423Z,10.20
2019-05-20T10:42:04.422Z,10.10
2019-05-20T10:43:04.453Z,10.20
2019-05-20T10:44:04.467Z,10.30
2019-05-20T10:45:04.417Z,9.90
2019-05-20T10:46:04.451Z,9.70
2019-05-20T10:47:04.394Z,10.50
2019-05-20T10:48:08.385Z,10.20
2019-05-20T10:49:04.344Z,10.10
2019-05-20T10:50:04.352Z,10.10
2019-05-20T10:51:04.352Z,9.80
2019-05-20T10:52:04.302Z,9.90
2019-05-20T10:53:04.371Z,10.10
2019-05-20T10:54:04.285Z,9.50
2019-05-20T10:55:04.256Z,10.50
2019-05-20T10:56:04.270Z,10.80
2019-05-20T10:57:04.294Z,11.10
2019-05-20T10:58:04.242Z,10.70
2019-05-20T10:59:04.243Z,10.20
2019-05-20T11:00:04.295Z,9.90
2019-05-20T11:01:04.215Z,10.00
2019-05-20T11:02:04.210Z,10.00
2019-05-20T11:03:04.236Z,10.20
2019-05-20T11:04:04.157Z,10.30
2019-05-20T11:05:04.138Z,9.80
2019-05-20T11:06:04.142Z,9.90
2019-05-20T11:07:04.125Z,9.70
2019-05-20T11:08:04.176Z,10.50
2019-05-20T11:09:13.753Z,10.40
2019-05-20T11:10:05.111Z,11.00
2019-05-20T11:11:04.155Z,11.00
2019-05-20T11:12:04.077Z,10.50
2019-05-20T11:13:04.085Z,10.70
2019-05-20T11:14:04.051Z,10.20
2019-05-20T11:15:04.071Z,10.30
2019-05-20T11:16:04.034Z,9.90
2019-05-20T11:17:04.009Z,10.10
2019-05-20T11:18:04.064Z,10.00
2019-05-20T11:19:03.989Z,9.80
2019-05-20T11:20:03.971Z,9.90
2019-05-20T11:21:03.976Z,10.60
2019-05-20T11:22:03.961Z,10.50
2019-05-20T11:23:03.977Z,10.60
2019-05-20T11:24:03.965Z,10.60
2019-05-20T11:25:03.972Z,10.30
2019-05-20T11:26:03.922Z,10.20
2019-05-20T11:27:03.898Z,11.20
2019-05-20T11:28:03.884Z,11.30
2019-05-20T11:29:03.870Z,10.90
2019-05-20T11:30:03.912Z,10.80
2019-05-20T11:31:03.842Z,10.50
2019-05-20T11:32:03.835Z,10.70
2019-05-20T11:33:03.890Z,10.40
2019-05-20T11:34:03.834Z,10.80
2019-05-20T11:35:03.828Z,10.90
2019-05-20T11:36:03.788Z,10.60
2019-05-20T11:37:03.940Z,10.50
2019-05-20T11:38:03.768Z,10.90
2019-05-20T11:39:06.692Z,11.10
2019-05-20T11:40:04.775Z,11.00
2019-05-20T11:41:03.739Z,10.80
2019-05-20T11:42:03.803Z,11.60
2019-05-20T11:43:03.716Z,11.00
2019-05-20T11:44:03.713Z,11.70
2019-05-20T11:45:03.681Z,10.90
2019-05-20T11:46:03.680Z,11.60
2019-05-20T11:47:03.732Z,11.20
2019-05-20T11:48:04.326Z,11.70
2019-05-20T11:49:03.703Z,11.30
2019-05-20T11:51:22.667Z,12.70
2019-05-20T11:53:15.235Z,13.80
2019-05-20T11:55:26.128Z,13.80
2019-05-20T11:57:42.037Z,12.70
2019-05-20T11:58:41.929Z,12.50
2019-05-20T11:59:41.897Z,11.60
2019-05-20T12:00:43.049Z,11.90
2019-05-20T12:01:42.004Z,11.50
2019-05-20T12:02:41.803Z,11.00
2019-05-20T12:03:41.804Z,10.90
2019-05-20T12:05:02.838Z,10.30
2019-05-20T12:05:41.766Z,10.50
2019-05-20T12:06:41.757Z,10.00
2019-05-20T12:07:41.793Z,11.00
2019-05-20T12:08:41.718Z,10.20
2019-05-20T12:09:49.465Z,10.80
2019-05-20T12:10:42.694Z,10.90
2019-05-20T12:11:41.901Z,11.00
2019-05-20T12:12:41.682Z,12.50
2019-05-20T12:13:41.678Z,31.10
2019-05-20T12:14:41.651Z,27.40
2019-05-20T12:15:55.890Z,14.00
2019-05-20T12:16:41.810Z,13.10
2019-05-20T12:17:41.751Z,12.70
2019-05-20T12:19:05.824Z,32.40
2019-05-20T12:19:41.747Z,23.50
2019-05-20T12:20:51.171Z,18.50
2019-05-20T12:21:51.247Z,14.70
2019-05-20T12:22:41.694Z,14.30
2019-05-20T12:23:41.668Z,12.00
2019-05-20T12:24:41.706Z,13.10
2019-05-20T12:25:41.568Z,13.60
2019-05-20T12:26:41.508Z,16.90
2019-05-20T12:27:59.785Z,30.00
2019-05-20T12:28:58.728Z,54.10
2019-05-20T12:29:56.000Z,24.90
2019-05-20T12:30:56.291Z,38.70
2019-05-20T12:31:50.802Z,40.90
2019-05-20T12:33:17.349Z,30.00
2019-05-20T12:33:53.831Z,23.60
2019-05-20T12:35:52.785Z,13.80
2019-05-20T12:37:01.394Z,17.30
2019-05-20T12:43:10.986Z,12.60
2019-05-20T12:44:09.966Z,12.40
2019-05-20T12:45:05.353Z,12.30
2019-05-20T12:46:00.250Z,13.30
2019-05-20T12:51:49.219Z,11.40
2019-05-20T12:52:22.060Z,13.20
2019-05-20T12:53:22.062Z,13.60
2019-05-20T12:54:22.054Z,13.80
2019-05-20T12:55:22.114Z,14.10
2019-05-20T12:56:21.979Z,14.20
2019-05-20T12:57:21.950Z,14.50
2019-05-20T12:58:21.959Z,13.60
2019-05-20T12:59:21.950Z,14.60
2019-05-20T13:00:21.914Z,14.60
2019-05-20T13:01:21.914Z,14.90
2019-05-20T13:02:21.890Z,14.60
2019-05-20T13:03:22.893Z,15.10
2019-05-20T13:04:21.897Z,14.20
2019-05-20T13:05:28.840Z,14.70
2019-05-20T13:06:24.297Z,15.20
2019-05-20T13:08:58.186Z,13.10
2019-05-20T13:11:09.253Z,16.10
2019-05-20T13:11:59.692Z,16.70
2019-05-20T13:13:08.260Z,16.10
2019-05-20T13:13:59.710Z,17.40
2019-05-20T13:14:59.694Z,16.10
2019-05-20T13:15:59.676Z,16.50
2019-05-20T13:16:59.832Z,16.80
2019-05-20T13:17:59.631Z,17.00
2019-05-20T13:19:01.195Z,17.40
2019-05-20T13:20:31.377Z,16.80
2019-05-20T13:20:59.553Z,16.10
2019-05-20T13:22:20.948Z,16.80
2019-05-20T13:23:19.425Z,17.70
2019-05-20T13:24:08.308Z,17.60
2019-05-20T13:24:59.578Z,16.80
2019-05-20T13:26:09.430Z,16.90
2019-05-20T13:26:59.559Z,16.60
2019-05-20T13:27:59.645Z,16.50